sensor_id;sensor_type;location;lat;lon;timestamp;temperature;humidity
67529;DHT22;54366;51.980;5.856;2022-09-13T00:02:06;19.80;72.00
67529;DHT22;54366;51.980;5.856;2022-09-13T00:04:32;19.80;71.90
67529;DHT22;54366;51.980;5.856;2022-09-13T00:06:58;19.80;71.90
67529;DHT22;54366;51.980;5.856;2022-09-13T00:09:25;19.80;71.80
67529;DHT22;54366;51.980;5.856;2022-09-13T00:11:51;19.80;71.70
67529;DHT22;54366;51.980;5.856;2022-09-13T00:14:17;19.80;71.80
67529;DHT22;54366;51.980;5.856;2022-09-13T00:16:43;19.80;72.10
67529;DHT22;54366;51.980;5.856;2022-09-13T00:19:10;19.80;72.30
67529;DHT22;54366;51.980;5.856;2022-09-13T00:21:36;19.70;72.20
67529;DHT22;54366;51.980;5.856;2022-09-13T00:24:02;19.70;72.20
67529;DHT22;54366;51.980;5.856;2022-09-13T00:26:28;19.70;72.30
67529;DHT22;54366;51.980;5.856;2022-09-13T00:28:57;19.80;72.20
67529;DHT22;54366;51.980;5.856;2022-09-13T00:31:25;19.70;72.00
67529;DHT22;54366;51.980;5.856;2022-09-13T00:33:52;19.70;72.20
67529;DHT22;54366;51.980;5.856;2022-09-13T00:36:19;19.70;72.20
67529;DHT22;54366;51.980;5.856;2022-09-13T00:38:45;19.70;72.10
67529;DHT22;54366;51.980;5.856;2022-09-13T00:41:15;19.70;72.30
67529;DHT22;54366;51.980;5.856;2022-09-13T00:43:48;19.70;72.00
67529;DHT22;54366;51.980;5.856;2022-09-13T00:46:39;19.60;72.00
67529;DHT22;54366;51.980;5.856;2022-09-13T00:49:28;19.60;72.10
67529;DHT22;54366;51.980;5.856;2022-09-13T00:52:02;19.60;72.00
67529;DHT22;54366;51.980;5.856;2022-09-13T00:54:35;19.60;72.00
67529;DHT22;54366;51.980;5.856;2022-09-13T00:57:06;19.60;72.10
67529;DHT22;54366;51.980;5.856;2022-09-13T00:59:41;19.60;72.00
67529;DHT22;54366;51.980;5.856;2022-09-13T01:02:09;19.60;72.50
67529;DHT22;54366;51.980;5.856;2022-09-13T01:04:37;19.60;72.50
67529;DHT22;54366;51.980;5.856;2022-09-13T01:07:07;19.60;72.60
67529;DHT22;54366;51.980;5.856;2022-09-13T01:09:37;19.60;72.30
67529;DHT22;54366;51.980;5.856;2022-09-13T01:12:08;19.60;72.70
67529;DHT22;54366;51.980;5.856;2022-09-13T01:14:41;19.50;73.00
67529;DHT22;54366;51.980;5.856;2022-09-13T01:17:08;19.60;73.10
67529;DHT22;54366;51.980;5.856;2022-09-13T01:19:35;19.50;73.10
67529;DHT22;54366;51.980;5.856;2022-09-13T01:22:38;19.50;73.50
67529;DHT22;54366;51.980;5.856;2022-09-13T01:39:06;19.50;73.90
67529;DHT22;54366;51.980;5.856;2022-09-13T01:55:17;19.50;75.10
67529;DHT22;54366;51.980;5.856;2022-09-13T02:00:21;19.50;75.30
67529;DHT22;54366;51.980;5.856;2022-09-13T02:03:06;19.40;75.20
67529;DHT22;54366;51.980;5.856;2022-09-13T02:08:37;19.50;75.40
67529;DHT22;54366;51.980;5.856;2022-09-13T02:11:09;19.40;75.40
67529;DHT22;54366;51.980;5.856;2022-09-13T02:14:10;19.50;75.30
67529;DHT22;54366;51.980;5.856;2022-09-13T02:16:53;19.50;75.80
67529;DHT22;54366;51.980;5.856;2022-09-13T02:22:31;19.40;75.50
67529;DHT22;54366;51.980;5.856;2022-09-13T02:25:05;19.40;75.20
67529;DHT22;54366;51.980;5.856;2022-09-13T02:27:33;19.40;75.30
67529;DHT22;54366;51.980;5.856;2022-09-13T02:30:04;19.40;75.50
67529;DHT22;54366;51.980;5.856;2022-09-13T02:32:45;19.40;75.40
67529;DHT22;54366;51.980;5.856;2022-09-13T02:35:26;19.40;75.40
67529;DHT22;54366;51.980;5.856;2022-09-13T02:38:09;19.40;75.10
67529;DHT22;54366;51.980;5.856;2022-09-13T02:40:44;19.40;75.00
67529;DHT22;54366;51.980;5.856;2022-09-13T02:43:13;19.40;75.00
67529;DHT22;54366;51.980;5.856;2022-09-13T02:45:50;19.40;75.20
67529;DHT22;54366;51.980;5.856;2022-09-13T02:54:43;19.30;75.10
67529;DHT22;54366;51.980;5.856;2022-09-13T02:57:19;19.30;74.50
67529;DHT22;54366;51.980;5.856;2022-09-13T02:59:47;19.40;74.80
67529;DHT22;54366;51.980;5.856;2022-09-13T03:02:16;19.30;75.00
67529;DHT22;54366;51.980;5.856;2022-09-13T03:04:44;19.30;74.90
67529;DHT22;54366;51.980;5.856;2022-09-13T03:07:11;19.30;74.50
67529;DHT22;54366;51.980;5.856;2022-09-13T03:09:57;19.30;74.80
67529;DHT22;54366;51.980;5.856;2022-09-13T03:21:07;19.40;75.20
67529;DHT22;54366;51.980;5.856;2022-09-13T03:26:44;19.30;75.20
67529;DHT22;54366;51.980;5.856;2022-09-13T03:37:31;19.30;74.60
67529;DHT22;54366;51.980;5.856;2022-09-13T03:45:07;19.40;74.20
67529;DHT22;54366;51.980;5.856;2022-09-13T03:47:35;19.30;74.30
67529;DHT22;54366;51.980;5.856;2022-09-13T03:50:05;19.30;74.60
67529;DHT22;54366;51.980;5.856;2022-09-13T03:52:32;19.30;74.80
67529;DHT22;54366;51.980;5.856;2022-09-13T03:54:59;19.30;74.80
67529;DHT22;54366;51.980;5.856;2022-09-13T03:57:26;19.30;74.90
67529;DHT22;54366;51.980;5.856;2022-09-13T03:59:54;19.30;74.90
67529;DHT22;54366;51.980;5.856;2022-09-13T04:02:22;19.30;74.90
67529;DHT22;54366;51.980;5.856;2022-09-13T04:04:49;19.30;74.90
67529;DHT22;54366;51.980;5.856;2022-09-13T04:07:23;19.30;74.80
67529;DHT22;54366;51.980;5.856;2022-09-13T04:09:50;19.30;74.80
67529;DHT22;54366;51.980;5.856;2022-09-13T04:12:17;19.30;75.00
67529;DHT22;54366;51.980;5.856;2022-09-13T04:14:44;19.30;74.90
67529;DHT22;54366;51.980;5.856;2022-09-13T04:17:11;19.30;74.70
67529;DHT22;54366;51.980;5.856;2022-09-13T04:19:38;19.30;75.00
67529;DHT22;54366;51.980;5.856;2022-09-13T04:22:04;19.30;74.90
67529;DHT22;54366;51.980;5.856;2022-09-13T04:24:31;19.30;75.00
67529;DHT22;54366;51.980;5.856;2022-09-13T04:26:57;19.30;75.00
67529;DHT22;54366;51.980;5.856;2022-09-13T04:29:25;19.30;75.00
67529;DHT22;54366;51.980;5.856;2022-09-13T04:31:52;19.30;74.90
67529;DHT22;54366;51.980;5.856;2022-09-13T04:34:19;19.40;75.10
67529;DHT22;54366;51.980;5.856;2022-09-13T04:36:47;19.30;75.00
67529;DHT22;54366;51.980;5.856;2022-09-13T04:39:14;19.30;75.20
67529;DHT22;54366;51.980;5.856;2022-09-13T04:41:44;19.30;75.30
67529;DHT22;54366;51.980;5.856;2022-09-13T04:44:12;19.30;75.40
67529;DHT22;54366;51.980;5.856;2022-09-13T04:46:39;19.30;75.50
67529;DHT22;54366;51.980;5.856;2022-09-13T04:49:05;19.30;75.40
67529;DHT22;54366;51.980;5.856;2022-09-13T04:51:31;19.30;75.20
67529;DHT22;54366;51.980;5.856;2022-09-13T04:53:58;19.30;75.50
67529;DHT22;54366;51.980;5.856;2022-09-13T04:56:25;19.30;75.50
67529;DHT22;54366;51.980;5.856;2022-09-13T04:58:53;19.30;75.80
67529;DHT22;54366;51.980;5.856;2022-09-13T05:01:20;19.30;75.80
67529;DHT22;54366;51.980;5.856;2022-09-13T05:03:47;19.30;75.90
67529;DHT22;54366;51.980;5.856;2022-09-13T05:06:16;19.30;75.90
67529;DHT22;54366;51.980;5.856;2022-09-13T05:08:52;19.30;76.00
67529;DHT22;54366;51.980;5.856;2022-09-13T05:11:25;19.30;76.00
67529;DHT22;54366;51.980;5.856;2022-09-13T05:13:53;19.30;76.00
67529;DHT22;54366;51.980;5.856;2022-09-13T05:16:23;19.30;76.50
67529;DHT22;54366;51.980;5.856;2022-09-13T05:18:50;19.30;76.00
67529;DHT22;54366;51.980;5.856;2022-09-13T05:21:16;19.30;76.10
67529;DHT22;54366;51.980;5.856;2022-09-13T05:23:43;19.40;76.30
67529;DHT22;54366;51.980;5.856;2022-09-13T05:26:10;19.30;76.40
67529;DHT22;54366;51.980;5.856;2022-09-13T05:28:36;19.30;76.40
67529;DHT22;54366;51.980;5.856;2022-09-13T05:31:06;19.40;76.50
67529;DHT22;54366;51.980;5.856;2022-09-13T05:33:35;19.30;76.30
67529;DHT22;54366;51.980;5.856;2022-09-13T05:36:02;19.30;76.30
67529;DHT22;54366;51.980;5.856;2022-09-13T05:38:28;19.40;76.40
67529;DHT22;54366;51.980;5.856;2022-09-13T05:40:56;19.40;76.40
67529;DHT22;54366;51.980;5.856;2022-09-13T05:43:23;19.40;76.40
67529;DHT22;54366;51.980;5.856;2022-09-13T05:45:50;19.40;76.60
67529;DHT22;54366;51.980;5.856;2022-09-13T05:48:16;19.40;76.70
67529;DHT22;54366;51.980;5.856;2022-09-13T05:50:42;19.40;76.90
67529;DHT22;54366;51.980;5.856;2022-09-13T05:53:09;19.40;76.90
67529;DHT22;54366;51.980;5.856;2022-09-13T05:55:35;19.40;76.90
67529;DHT22;54366;51.980;5.856;2022-09-13T05:58:01;19.40;76.80
67529;DHT22;54366;51.980;5.856;2022-09-13T06:00:28;19.50;76.70
67529;DHT22;54366;51.980;5.856;2022-09-13T06:02:56;19.50;76.90
67529;DHT22;54366;51.980;5.856;2022-09-13T06:05:23;19.50;76.70
67529;DHT22;54366;51.980;5.856;2022-09-13T06:07:49;19.50;76.40
67529;DHT22;54366;51.980;5.856;2022-09-13T06:10:15;19.60;76.40
67529;DHT22;54366;51.980;5.856;2022-09-13T06:12:42;19.60;76.30
67529;DHT22;54366;51.980;5.856;2022-09-13T06:15:08;19.60;76.20
67529;DHT22;54366;51.980;5.856;2022-09-13T06:17:35;19.70;76.70
67529;DHT22;54366;51.980;5.856;2022-09-13T06:20:02;19.70;76.80
67529;DHT22;54366;51.980;5.856;2022-09-13T06:22:28;19.70;76.20
67529;DHT22;54366;51.980;5.856;2022-09-13T06:24:58;19.70;76.00
67529;DHT22;54366;51.980;5.856;2022-09-13T06:27:25;19.80;76.00
67529;DHT22;54366;51.980;5.856;2022-09-13T06:29:51;19.80;76.00
67529;DHT22;54366;51.980;5.856;2022-09-13T06:32:17;19.90;76.00
67529;DHT22;54366;51.980;5.856;2022-09-13T06:34:43;19.90;75.90
67529;DHT22;54366;51.980;5.856;2022-09-13T06:37:10;19.90;75.80
67529;DHT22;54366;51.980;5.856;2022-09-13T06:39:36;19.90;75.50
67529;DHT22;54366;51.980;5.856;2022-09-13T06:42:02;20.00;75.40
67529;DHT22;54366;51.980;5.856;2022-09-13T06:44:38;20.00;75.20
67529;DHT22;54366;51.980;5.856;2022-09-13T06:47:04;20.00;75.00
67529;DHT22;54366;51.980;5.856;2022-09-13T06:49:31;20.10;74.90
67529;DHT22;54366;51.980;5.856;2022-09-13T06:51:57;20.10;74.80
67529;DHT22;54366;51.980;5.856;2022-09-13T06:54:23;20.10;74.80
67529;DHT22;54366;51.980;5.856;2022-09-13T06:56:50;20.10;74.70
67529;DHT22;54366;51.980;5.856;2022-09-13T06:59:16;20.20;74.70
67529;DHT22;54366;51.980;5.856;2022-09-13T07:01:42;20.20;74.60
67529;DHT22;54366;51.980;5.856;2022-09-13T07:04:16;20.30;74.60
67529;DHT22;54366;51.980;5.856;2022-09-13T07:06:46;20.40;74.60
67529;DHT22;54366;51.980;5.856;2022-09-13T07:09:15;20.40;74.40
67529;DHT22;54366;51.980;5.856;2022-09-13T07:11:43;20.50;74.20
67529;DHT22;54366;51.980;5.856;2022-09-13T07:14:15;20.50;74.00
67529;DHT22;54366;51.980;5.856;2022-09-13T07:16:42;20.50;73.90
67529;DHT22;54366;51.980;5.856;2022-09-13T07:19:16;20.60;73.90
67529;DHT22;54366;51.980;5.856;2022-09-13T07:21:43;20.70;73.90
67529;DHT22;54366;51.980;5.856;2022-09-13T07:24:10;20.70;74.00
67529;DHT22;54366;51.980;5.856;2022-09-13T07:26:37;20.70;74.00
67529;DHT22;54366;51.980;5.856;2022-09-13T07:29:06;20.80;74.00
67529;DHT22;54366;51.980;5.856;2022-09-13T07:31:35;20.90;74.10
67529;DHT22;54366;51.980;5.856;2022-09-13T07:34:04;20.90;74.30
67529;DHT22;54366;51.980;5.856;2022-09-13T07:36:32;20.90;74.30
67529;DHT22;54366;51.980;5.856;2022-09-13T07:38:59;21.00;74.30
67529;DHT22;54366;51.980;5.856;2022-09-13T07:41:27;21.10;74.00
67529;DHT22;54366;51.980;5.856;2022-09-13T07:43:54;21.20;73.60
67529;DHT22;54366;51.980;5.856;2022-09-13T07:46:24;21.20;73.10
67529;DHT22;54366;51.980;5.856;2022-09-13T07:48:55;21.30;72.80
67529;DHT22;54366;51.980;5.856;2022-09-13T07:51:24;21.40;72.60
67529;DHT22;54366;51.980;5.856;2022-09-13T07:53:53;21.50;72.60
67529;DHT22;54366;51.980;5.856;2022-09-13T07:56:24;21.50;72.60
67529;DHT22;54366;51.980;5.856;2022-09-13T07:58:51;21.60;72.50
67529;DHT22;54366;51.980;5.856;2022-09-13T08:01:22;21.70;72.50
67529;DHT22;54366;51.980;5.856;2022-09-13T08:04:08;21.80;72.50
67529;DHT22;54366;51.980;5.856;2022-09-13T08:06:36;21.90;72.50
67529;DHT22;54366;51.980;5.856;2022-09-13T08:09:04;22.00;72.60
67529;DHT22;54366;51.980;5.856;2022-09-13T08:11:33;22.00;72.60
67529;DHT22;54366;51.980;5.856;2022-09-13T08:14:00;22.10;72.50
67529;DHT22;54366;51.980;5.856;2022-09-13T08:16:28;22.10;72.50
67529;DHT22;54366;51.980;5.856;2022-09-13T08:18:56;22.10;72.80
67529;DHT22;54366;51.980;5.856;2022-09-13T08:21:23;22.10;72.90
67529;DHT22;54366;51.980;5.856;2022-09-13T08:23:56;22.00;73.20
67529;DHT22;54366;51.980;5.856;2022-09-13T08:26:27;22.00;73.10
67529;DHT22;54366;51.980;5.856;2022-09-13T08:28:56;22.10;73.20
67529;DHT22;54366;51.980;5.856;2022-09-13T08:31:23;22.20;73.20
67529;DHT22;54366;51.980;5.856;2022-09-13T08:33:49;22.20;73.20
67529;DHT22;54366;51.980;5.856;2022-09-13T08:36:16;22.20;73.00
67529;DHT22;54366;51.980;5.856;2022-09-13T08:38:47;22.20;73.00
67529;DHT22;54366;51.980;5.856;2022-09-13T08:44:43;22.30;72.60
67529;DHT22;54366;51.980;5.856;2022-09-13T08:50:34;22.40;72.30
67529;DHT22;54366;51.980;5.856;2022-09-13T08:53:16;22.40;72.40
67529;DHT22;54366;51.980;5.856;2022-09-13T08:56:08;22.40;72.10
67529;DHT22;54366;51.980;5.856;2022-09-13T09:01:33;22.50;72.10
67529;DHT22;54366;51.980;5.856;2022-09-13T09:04:26;22.50;72.00
67529;DHT22;54366;51.980;5.856;2022-09-13T09:07:19;22.60;71.90
67529;DHT22;54366;51.980;5.856;2022-09-13T09:09:56;22.60;71.50
67529;DHT22;54366;51.980;5.856;2022-09-13T09:15:25;22.50;71.50
67529;DHT22;54366;51.980;5.856;2022-09-13T09:20:30;22.60;71.10
67529;DHT22;54366;51.980;5.856;2022-09-13T09:23:04;22.50;71.50
67529;DHT22;54366;51.980;5.856;2022-09-13T09:25:33;22.50;71.70
67529;DHT22;54366;51.980;5.856;2022-09-13T09:28:00;22.60;71.90
67529;DHT22;54366;51.980;5.856;2022-09-13T09:30:42;22.60;71.80
67529;DHT22;54366;51.980;5.856;2022-09-13T09:33:40;22.70;71.80
67529;DHT22;54366;51.980;5.856;2022-09-13T09:38:46;22.70;70.70
67529;DHT22;54366;51.980;5.856;2022-09-13T09:41:28;22.60;70.60
67529;DHT22;54366;51.980;5.856;2022-09-13T09:44:17;22.60;70.80
67529;DHT22;54366;51.980;5.856;2022-09-13T09:46:47;22.50;71.10
67529;DHT22;54366;51.980;5.856;2022-09-13T09:49:38;22.40;71.00
67529;DHT22;54366;51.980;5.856;2022-09-13T09:52:30;22.40;71.30
67529;DHT22;54366;51.980;5.856;2022-09-13T09:55:04;22.50;71.10
67529;DHT22;54366;51.980;5.856;2022-09-13T09:57:58;22.50;71.00
67529;DHT22;54366;51.980;5.856;2022-09-13T10:00:30;22.60;70.60
67529;DHT22;54366;51.980;5.856;2022-09-13T10:02:59;22.60;70.70
67529;DHT22;54366;51.980;5.856;2022-09-13T10:05:28;22.60;70.70
67529;DHT22;54366;51.980;5.856;2022-09-13T10:08:04;22.70;70.70
67529;DHT22;54366;51.980;5.856;2022-09-13T10:10:43;22.80;70.60
67529;DHT22;54366;51.980;5.856;2022-09-13T10:13:20;22.90;70.40
67529;DHT22;54366;51.980;5.856;2022-09-13T10:16:04;23.10;69.50
67529;DHT22;54366;51.980;5.856;2022-09-13T10:18:35;23.10;69.30
67529;DHT22;54366;51.980;5.856;2022-09-13T10:21:09;23.20;68.00
67529;DHT22;54366;51.980;5.856;2022-09-13T10:23:47;23.20;67.90
67529;DHT22;54366;51.980;5.856;2022-09-13T10:26:18;23.30;67.90
67529;DHT22;54366;51.980;5.856;2022-09-13T10:29:07;23.50;68.20
67529;DHT22;54366;51.980;5.856;2022-09-13T10:31:37;23.50;68.00
67529;DHT22;54366;51.980;5.856;2022-09-13T10:36:36;23.50;67.30
67529;DHT22;54366;51.980;5.856;2022-09-13T10:39:12;23.50;67.10
67529;DHT22;54366;51.980;5.856;2022-09-13T10:41:55;23.40;67.10
67529;DHT22;54366;51.980;5.856;2022-09-13T10:44:23;23.30;67.00
67529;DHT22;54366;51.980;5.856;2022-09-13T10:46:52;23.40;67.60
67529;DHT22;54366;51.980;5.856;2022-09-13T10:49:38;23.40;67.50
67529;DHT22;54366;51.980;5.856;2022-09-13T10:55:25;23.70;66.90
67529;DHT22;54366;51.980;5.856;2022-09-13T10:58:15;23.90;66.20
67529;DHT22;54366;51.980;5.856;2022-09-13T11:07:09;24.40;64.40
67529;DHT22;54366;51.980;5.856;2022-09-13T11:10:00;24.50;63.40
67529;DHT22;54366;51.980;5.856;2022-09-13T11:15:42;24.50;63.80
67529;DHT22;54366;51.980;5.856;2022-09-13T11:29:25;24.30;63.70
67529;DHT22;54366;51.980;5.856;2022-09-13T11:35:13;24.40;62.80
67529;DHT22;54366;51.980;5.856;2022-09-13T11:37:52;24.60;62.30
67529;DHT22;54366;51.980;5.856;2022-09-13T11:40:47;24.60;62.20
67529;DHT22;54366;51.980;5.856;2022-09-13T11:43:41;24.60;61.70
67529;DHT22;54366;51.980;5.856;2022-09-13T11:46:31;24.50;62.10
67529;DHT22;54366;51.980;5.856;2022-09-13T11:49:36;24.50;62.60
67529;DHT22;54366;51.980;5.856;2022-09-13T11:57:39;24.80;62.50
67529;DHT22;54366;51.980;5.856;2022-09-13T12:02:55;25.00;60.10
67529;DHT22;54366;51.980;5.856;2022-09-13T12:05:32;25.10;61.20
67529;DHT22;54366;51.980;5.856;2022-09-13T12:08:09;25.10;60.70
67529;DHT22;54366;51.980;5.856;2022-09-13T12:13:35;25.20;59.20
67529;DHT22;54366;51.980;5.856;2022-09-13T12:16:08;25.20;59.10
67529;DHT22;54366;51.980;5.856;2022-09-13T12:18:45;25.20;59.40
67529;DHT22;54366;51.980;5.856;2022-09-13T12:21:16;25.10;58.80
67529;DHT22;54366;51.980;5.856;2022-09-13T12:26:36;25.00;59.30
67529;DHT22;54366;51.980;5.856;2022-09-13T12:29:23;25.10;58.80
67529;DHT22;54366;51.980;5.856;2022-09-13T12:31:53;25.10;59.10
67529;DHT22;54366;51.980;5.856;2022-09-13T12:34:32;25.00;57.60
67529;DHT22;54366;51.980;5.856;2022-09-13T12:51:06;25.50;58.90
67529;DHT22;54366;51.980;5.856;2022-09-13T12:54:17;25.80;57.70
67529;DHT22;54366;51.980;5.856;2022-09-13T12:57:20;26.00;56.90
67529;DHT22;54366;51.980;5.856;2022-09-13T13:02:49;26.10;55.20
67529;DHT22;54366;51.980;5.856;2022-09-13T13:05:19;26.20;55.40
67529;DHT22;54366;51.980;5.856;2022-09-13T13:08:03;26.30;55.30
67529;DHT22;54366;51.980;5.856;2022-09-13T13:10:31;26.40;55.30
67529;DHT22;54366;51.980;5.856;2022-09-13T13:13:20;26.30;52.60
67529;DHT22;54366;51.980;5.856;2022-09-13T13:21:35;25.70;54.80
67529;DHT22;54366;51.980;5.856;2022-09-13T13:26:57;25.60;54.30
67529;DHT22;54366;51.980;5.856;2022-09-13T13:29:25;25.50;54.80
67529;DHT22;54366;51.980;5.856;2022-09-13T13:34:38;25.40;54.50
67529;DHT22;54366;51.980;5.856;2022-09-13T13:37:27;25.30;54.00
67529;DHT22;54366;51.980;5.856;2022-09-13T13:40:32;25.30;55.10
67529;DHT22;54366;51.980;5.856;2022-09-13T13:43:29;25.20;55.50
67529;DHT22;54366;51.980;5.856;2022-09-13T13:45:59;25.20;55.30
67529;DHT22;54366;51.980;5.856;2022-09-13T13:48:43;25.20;55.60
67529;DHT22;54366;51.980;5.856;2022-09-13T13:53:42;25.20;55.20
67529;DHT22;54366;51.980;5.856;2022-09-13T13:56:31;25.20;54.90
67529;DHT22;54366;51.980;5.856;2022-09-13T14:01:44;25.20;54.70
67529;DHT22;54366;51.980;5.856;2022-09-13T14:04:38;25.20;52.90
67529;DHT22;54366;51.980;5.856;2022-09-13T14:15:29;25.00;52.50
67529;DHT22;54366;51.980;5.856;2022-09-13T14:21:19;25.20;53.30
67529;DHT22;54366;51.980;5.856;2022-09-13T14:23:45;25.20;53.40
67529;DHT22;54366;51.980;5.856;2022-09-13T14:26:12;25.20;53.70
67529;DHT22;54366;51.980;5.856;2022-09-13T14:28:39;25.20;54.90
67529;DHT22;54366;51.980;5.856;2022-09-13T14:31:05;25.20;54.10
67529;DHT22;54366;51.980;5.856;2022-09-13T14:33:33;25.10;52.90
67529;DHT22;54366;51.980;5.856;2022-09-13T14:36:07;25.10;52.80
67529;DHT22;54366;51.980;5.856;2022-09-13T14:38:50;25.00;52.80
67529;DHT22;54366;51.980;5.856;2022-09-13T14:41:19;25.00;51.20
67529;DHT22;54366;51.980;5.856;2022-09-13T14:43:47;24.90;52.10
67529;DHT22;54366;51.980;5.856;2022-09-13T14:46:23;24.90;52.60
67529;DHT22;54366;51.980;5.856;2022-09-13T14:48:56;24.90;52.40
67529;DHT22;54366;51.980;5.856;2022-09-13T14:51:27;24.90;53.30
67529;DHT22;54366;51.980;5.856;2022-09-13T14:54:08;24.80;52.20
67529;DHT22;54366;51.980;5.856;2022-09-13T14:56:45;24.90;52.40
67529;DHT22;54366;51.980;5.856;2022-09-13T14:59:22;24.90;52.50
67529;DHT22;54366;51.980;5.856;2022-09-13T15:01:51;24.90;51.80
67529;DHT22;54366;51.980;5.856;2022-09-13T15:04:18;24.80;52.10
67529;DHT22;54366;51.980;5.856;2022-09-13T15:06:44;24.80;52.50
67529;DHT22;54366;51.980;5.856;2022-09-13T15:11:54;24.80;52.80
67529;DHT22;54366;51.980;5.856;2022-09-13T15:20:10;24.80;51.70
67529;DHT22;54366;51.980;5.856;2022-09-13T15:22:30;24.70;52.40
67529;DHT22;54366;51.980;5.856;2022-09-13T15:25:00;24.70;52.90
67529;DHT22;54366;51.980;5.856;2022-09-13T15:27:52;24.60;53.20
67529;DHT22;54366;51.980;5.856;2022-09-13T15:30:31;24.60;53.00
67529;DHT22;54366;51.980;5.856;2022-09-13T15:35:44;24.50;52.90
67529;DHT22;54366;51.980;5.856;2022-09-13T15:38:29;24.40;52.80
67529;DHT22;54366;51.980;5.856;2022-09-13T15:43:37;24.40;52.30
67529;DHT22;54366;51.980;5.856;2022-09-13T15:46:04;24.30;52.20
67529;DHT22;54366;51.980;5.856;2022-09-13T15:48:35;24.30;52.50
67529;DHT22;54366;51.980;5.856;2022-09-13T15:51:11;24.30;52.00
67529;DHT22;54366;51.980;5.856;2022-09-13T15:53:39;24.30;51.50
67529;DHT22;54366;51.980;5.856;2022-09-13T15:56:07;24.30;51.20
67529;DHT22;54366;51.980;5.856;2022-09-13T15:58:34;24.20;50.70
67529;DHT22;54366;51.980;5.856;2022-09-13T16:01:01;24.10;51.20
67529;DHT22;54366;51.980;5.856;2022-09-13T16:03:28;24.00;51.40
67529;DHT22;54366;51.980;5.856;2022-09-13T16:05:54;23.90;51.60
67529;DHT22;54366;51.980;5.856;2022-09-13T16:08:20;23.90;51.50
67529;DHT22;54366;51.980;5.856;2022-09-13T16:10:46;23.80;51.40
67529;DHT22;54366;51.980;5.856;2022-09-13T16:13:13;23.80;51.90
67529;DHT22;54366;51.980;5.856;2022-09-13T16:15:39;23.70;51.30
67529;DHT22;54366;51.980;5.856;2022-09-13T16:18:05;23.70;51.50
67529;DHT22;54366;51.980;5.856;2022-09-13T16:20:32;23.60;52.00
67529;DHT22;54366;51.980;5.856;2022-09-13T16:22:58;23.50;52.10
67529;DHT22;54366;51.980;5.856;2022-09-13T16:25:24;23.50;52.40
67529;DHT22;54366;51.980;5.856;2022-09-13T16:27:50;23.50;52.70
67529;DHT22;54366;51.980;5.856;2022-09-13T16:30:20;23.50;52.80
67529;DHT22;54366;51.980;5.856;2022-09-13T16:32:47;23.40;52.90
67529;DHT22;54366;51.980;5.856;2022-09-13T16:35:14;23.40;53.00
67529;DHT22;54366;51.980;5.856;2022-09-13T16:37:42;23.40;53.20
67529;DHT22;54366;51.980;5.856;2022-09-13T16:40:10;23.30;53.10
67529;DHT22;54366;51.980;5.856;2022-09-13T16:42:36;23.30;53.40
67529;DHT22;54366;51.980;5.856;2022-09-13T16:45:04;23.20;52.90
67529;DHT22;54366;51.980;5.856;2022-09-13T16:47:30;23.20;53.30
67529;DHT22;54366;51.980;5.856;2022-09-13T16:49:56;23.20;53.80
67529;DHT22;54366;51.980;5.856;2022-09-13T16:52:23;23.10;53.60
67529;DHT22;54366;51.980;5.856;2022-09-13T16:54:49;23.10;54.00
67529;DHT22;54366;51.980;5.856;2022-09-13T16:57:17;23.10;54.10
67529;DHT22;54366;51.980;5.856;2022-09-13T16:59:43;23.00;54.30
67529;DHT22;54366;51.980;5.856;2022-09-13T17:02:12;23.00;54.10
67529;DHT22;54366;51.980;5.856;2022-09-13T17:04:38;22.80;53.90
67529;DHT22;54366;51.980;5.856;2022-09-13T17:07:05;22.70;54.30
67529;DHT22;54366;51.980;5.856;2022-09-13T17:09:32;22.60;54.60
67529;DHT22;54366;51.980;5.856;2022-09-13T17:11:59;22.50;54.70
67529;DHT22;54366;51.980;5.856;2022-09-13T17:14:26;22.40;55.00
67529;DHT22;54366;51.980;5.856;2022-09-13T17:16:54;22.30;55.50
67529;DHT22;54366;51.980;5.856;2022-09-13T17:19:26;22.30;55.50
67529;DHT22;54366;51.980;5.856;2022-09-13T17:21:55;22.20;55.60
67529;DHT22;54366;51.980;5.856;2022-09-13T17:24:26;22.10;55.90
67529;DHT22;54366;51.980;5.856;2022-09-13T17:26:54;22.10;56.00
67529;DHT22;54366;51.980;5.856;2022-09-13T17:29:22;22.00;56.00
67529;DHT22;54366;51.980;5.856;2022-09-13T17:31:51;21.90;56.20
67529;DHT22;54366;51.980;5.856;2022-09-13T17:34:17;21.90;56.60
67529;DHT22;54366;51.980;5.856;2022-09-13T17:36:44;21.80;56.70
67529;DHT22;54366;51.980;5.856;2022-09-13T17:39:10;21.80;56.70
67529;DHT22;54366;51.980;5.856;2022-09-13T17:41:37;21.80;56.90
67529;DHT22;54366;51.980;5.856;2022-09-13T17:44:03;21.70;56.90
67529;DHT22;54366;51.980;5.856;2022-09-13T17:46:29;21.70;57.00
67529;DHT22;54366;51.980;5.856;2022-09-13T17:48:58;21.60;57.10
67529;DHT22;54366;51.980;5.856;2022-09-13T17:51:27;21.60;57.00
67529;DHT22;54366;51.980;5.856;2022-09-13T17:53:55;21.50;57.00
67529;DHT22;54366;51.980;5.856;2022-09-13T17:56:26;21.40;57.30
67529;DHT22;54366;51.980;5.856;2022-09-13T17:58:55;21.30;57.00
67529;DHT22;54366;51.980;5.856;2022-09-13T18:01:22;21.20;57.60
67529;DHT22;54366;51.980;5.856;2022-09-13T18:03:48;21.20;57.30
67529;DHT22;54366;51.980;5.856;2022-09-13T18:06:14;21.20;57.30
67529;DHT22;54366;51.980;5.856;2022-09-13T18:08:41;21.20;57.30
67529;DHT22;54366;51.980;5.856;2022-09-13T18:11:10;21.20;57.30
67529;DHT22;54366;51.980;5.856;2022-09-13T18:13:37;21.20;57.30
67529;DHT22;54366;51.980;5.856;2022-09-13T18:16:15;21.10;57.10
67529;DHT22;54366;51.980;5.856;2022-09-13T18:18:42;21.10;57.20
67529;DHT22;54366;51.980;5.856;2022-09-13T18:21:11;21.10;57.10
67529;DHT22;54366;51.980;5.856;2022-09-13T18:23:40;21.00;57.20
67529;DHT22;54366;51.980;5.856;2022-09-13T18:26:10;21.00;57.20
67529;DHT22;54366;51.980;5.856;2022-09-13T18:28:37;21.00;57.20
67529;DHT22;54366;51.980;5.856;2022-09-13T18:31:05;21.00;57.20
67529;DHT22;54366;51.980;5.856;2022-09-13T18:33:32;20.90;57.10
67529;DHT22;54366;51.980;5.856;2022-09-13T18:36:00;20.90;57.20
67529;DHT22;54366;51.980;5.856;2022-09-13T18:38:30;20.80;57.30
67529;DHT22;54366;51.980;5.856;2022-09-13T18:41:01;20.80;57.50
67529;DHT22;54366;51.980;5.856;2022-09-13T18:43:28;20.80;57.60
67529;DHT22;54366;51.980;5.856;2022-09-13T18:45:59;20.80;57.60
67529;DHT22;54366;51.980;5.856;2022-09-13T18:48:33;20.70;57.60
67529;DHT22;54366;51.980;5.856;2022-09-13T18:51:00;20.70;57.60
67529;DHT22;54366;51.980;5.856;2022-09-13T18:53:27;20.60;57.80
67529;DHT22;54366;51.980;5.856;2022-09-13T18:55:54;20.60;57.90
67529;DHT22;54366;51.980;5.856;2022-09-13T18:58:22;20.60;58.50
67529;DHT22;54366;51.980;5.856;2022-09-13T19:01:11;20.50;57.80
67529;DHT22;54366;51.980;5.856;2022-09-13T19:03:40;20.60;57.90
67529;DHT22;54366;51.980;5.856;2022-09-13T19:06:18;20.50;58.20